Time;durP1;ratioP1;P1;durP2;ratioP2;P2;SDS_P1;SDS_P2;PMS_P1;PMS_P2;Temp;Humidity;BMP_temperature;BMP_pressure;BME280_temperature;BME280_humidity;BME280_pressure;Samples;Min_cycle;Max_cycle;Signal;HPM_P1;HPM_P2
2022/09/30 00:01:50;;;;;;;10.57;8.93;;;6.20;99.90;;;;;;5076995;28;20286;-80
2022/09/30 00:04:19;;;;;;;10.80;8.60;;;6.10;99.90;;;;;;5078987;28;20215;-81
2022/09/30 00:06:46;;;;;;;11.20;8.17;;;5.90;99.90;;;;;;5077756;28;20285;-80
2022/09/30 00:09:15;;;;;;;9.40;8.20;;;6.10;99.90;;;;;;5064097;28;20722;-80
2022/09/30 00:11:43;;;;;;;9.83;8.40;;;6.10;99.90;;;;;;5061708;28;20237;-80
2022/09/30 00:14:14;;;;;;;8.87;7.97;;;5.90;99.90;;;;;;5082458;28;20286;-80
2022/09/30 00:16:42;;;;;;;9.60;8.60;;;5.80;99.90;;;;;;5072660;28;20226;-81
2022/09/30 00:19:09;;;;;;;10.73;8.70;;;5.90;99.90;;;;;;5072731;28;20203;-81
2022/09/30 00:21:36;;;;;;;9.40;8.37;;;5.70;99.90;;;;;;5071014;28;20235;-81
2022/09/30 00:24:07;;;;;;;8.90;7.90;;;5.70;99.90;;;;;;5073130;28;20226;-81
2022/09/30 00:26:38;;;;;;;10.60;8.30;;;5.60;99.90;;;;;;5090218;28;20285;-81
2022/09/30 00:29:05;;;;;;;12.70;8.57;;;5.60;99.90;;;;;;5088106;28;20227;-81
2022/09/30 00:31:34;;;;;;;10.37;7.73;;;5.70;99.90;;;;;;5072867;28;20249;-80
2022/09/30 00:34:07;;;;;;;10.40;8.53;;;5.80;99.90;;;;;;5084321;28;20234;-80
2022/09/30 00:36:42;;;;;;;10.73;7.93;;;5.60;99.90;;;;;;5077652;28;20705;-80
2022/09/30 00:39:11;;;;;;;8.73;7.83;;;5.40;99.90;;;;;;5090134;28;20212;-81
2022/09/30 00:41:39;;;;;;;9.70;8.50;;;5.40;99.90;;;;;;5071580;28;20211;-81
2022/09/30 00:44:49;;;;;;;9.63;7.80;;;5.30;99.90;;;;;;5077434;28;20286;-81
2022/09/30 00:47:44;;;;;;;9.50;8.47;;;5.30;99.90;;;;;;5076432;28;20695;-81
2022/09/30 00:50:22;;;;;;;10.50;8.90;;;5.30;99.90;;;;;;5072003;28;20283;-80
2022/09/30 00:52:55;;;;;;;12.47;9.50;;;5.30;99.90;;;;;;5072231;28;20226;-81
2022/09/30 00:55:33;;;;;;;11.00;9.20;;;5.30;99.90;;;;;;5071787;28;20258;-81
2022/09/30 00:58:02;;;;;;;10.40;9.27;;;;;;;;;;5071060;28;20282;-80
2022/09/30 01:00:30;;;;;;;11.30;10.10;;;5.30;99.90;;;;;;5073972;28;20279;-80
2022/09/30 01:02:59;;;;;;;11.93;10.10;;;5.40;99.90;;;;;;5079958;28;20272;-80
2022/09/30 01:05:27;;;;;;;9.50;8.60;;;5.60;99.90;;;;;;5074533;28;20242;-80
2022/09/30 01:07:57;;;;;;;10.83;8.83;;;5.30;99.90;;;;;;5074737;28;20221;-80
2022/09/30 01:10:24;;;;;;;9.73;8.57;;;5.30;99.90;;;;;;5058894;28;20309;-80
2022/09/30 01:12:52;;;;;;;11.23;9.50;;;5.30;99.90;;;;;;5085240;28;20227;-81
2022/09/30 01:15:23;;;;;;;13.00;9.43;;;5.10;99.90;;;;;;5082408;28;20716;-81
2022/09/30 01:17:58;;;;;;;11.00;8.63;;;5.10;99.90;;;;;;5084520;28;20285;-81
2022/09/30 01:20:54;;;;;;;9.60;8.33;;;5.20;99.90;;;;;;5072764;28;20242;-81
2022/09/30 01:23:47;;;;;;;8.00;7.20;;;4.70;99.90;;;;;;5070192;28;20285;-81
2022/09/30 01:26:53;;;;;;;6.97;6.07;;;5.50;99.90;;;;;;5085346;28;20693;-81
2022/09/30 01:30:03;;;;;;;6.70;6.00;;;4.90;99.90;;;;;;5057211;28;20248;-81
2022/09/30 01:32:45;;;;;;;7.63;6.60;;;4.90;99.90;;;;;;5012158;28;20309;-80
2022/09/30 01:35:19;;;;;;;7.23;5.90;;;;;;;;;;5021994;28;20239;-80
2022/09/30 01:37:54;;;;;;;7.03;5.87;;;;;;;;;;5022060;28;20234;-80
2022/09/30 01:40:23;;;;;;;7.47;5.97;;;;;;;;;;5023589;28;20286;-81
2022/09/30 01:42:54;;;;;;;7.07;6.33;;;;;;;;;;5014475;28;20204;-80
2022/09/30 01:45:25;;;;;;;10.13;6.70;;;;;;;;;;5014463;28;20204;-81
2022/09/30 01:47:58;;;;;;;8.70;6.80;;;;;;;;;;5006425;28;20861;-81
2022/09/30 01:50:28;;;;;;;8.53;7.03;;;;;;;;;;5000827;28;20224;-80
2022/09/30 01:52:59;;;;;;;10.30;8.00;;;;;;;;;;5021950;28;20310;-80
2022/09/30 01:55:28;;;;;;;9.67;7.47;;;;;;;;;;5016039;28;20309;-81
2022/09/30 01:57:57;;;;;;;7.40;6.23;;;;;;;;;;5013932;28;20197;-80
2022/09/30 02:00:25;;;;;;;6.30;5.70;;;;;;;;;;5014122;28;20232;-80
2022/09/30 02:02:55;;;;;;;7.83;6.00;;;;;;;;;;5014477;28;20783;-81
2022/09/30 02:05:26;;;;;;;8.03;6.07;;;;;;;;;;5020307;28;20253;-81
2022/09/30 02:07:56;;;;;;;8.27;6.27;;;;;;;;;;5074461;28;20656;-81
2022/09/30 02:10:26;;;;;;;6.97;6.10;;;;;;;;;;5086854;28;20312;-80
2022/09/30 02:12:56;;;;;;;6.77;6.07;;;;;;;;;;5095797;28;20305;-81
2022/09/30 02:15:25;;;;;;;8.27;7.37;;;;;;;;;;5095856;28;20194;-80
2022/09/30 02:17:57;;;;;;;8.67;6.97;;;;;;;;;;5079872;28;20292;-80
2022/09/30 02:20:27;;;;;;;11.27;7.50;;;;;;;;;;5087387;28;20200;-80
2022/09/30 02:22:57;;;;;;;8.47;6.93;;;;;;;;;;5083950;28;20297;-80
2022/09/30 02:25:28;;;;;;;7.73;6.97;;;;;;;;;;5083039;28;20295;-80
2022/09/30 02:27:57;;;;;;;9.50;7.33;;;;;;;;;;5085021;28;20579;-80
2022/09/30 02:30:24;;;;;;;9.23;6.83;;;;;;;;;;5080962;28;20252;-81
2022/09/30 02:32:53;;;;;;;8.00;6.77;;;;;;;;;;5090231;28;20279;-80
2022/09/30 02:35:23;;;;;;;9.53;7.30;;;;;;;;;;5074045;28;20664;-80
2022/09/30 02:37:54;;;;;;;9.27;7.03;;;;;;;;;;5086365;28;20198;-80
2022/09/30 02:40:24;;;;;;;9.07;7.03;;;;;;;;;;5086100;28;20280;-80
2022/09/30 02:42:51;;;;;;;8.77;7.87;;;;;;;;;;5086096;28;20280;-80
2022/09/30 02:45:21;;;;;;;10.20;8.47;;;;;;;;;;5084807;28;20681;-81
2022/09/30 02:47:54;;;;;;;8.43;7.53;;;;;;;;;;5080669;28;20870;-81
2022/09/30 02:50:26;;;;;;;8.57;7.60;;;;;;;;;;5081528;28;20281;-80
2022/09/30 02:53:00;;;;;;;9.03;6.80;;;;;;;;;;5088467;28;20202;-80
2022/09/30 02:55:30;;;;;;;8.50;6.80;;;;;;;;;;5083297;28;20293;-81
2022/09/30 02:58:00;;;;;;;7.03;6.20;;;;;;;;;;5080203;28;20607;-80
2022/09/30 03:00:28;;;;;;;7.20;6.03;;;;;;;;;;5087910;28;20289;-80
2022/09/30 03:02:56;;;;;;;7.37;6.20;;;;;;;;;;5079181;28;20198;-80
2022/09/30 03:05:24;;;;;;;7.30;6.10;;;;;;;;;;5074329;28;20255;-80
2022/09/30 03:07:51;;;;;;;8.07;6.83;;;;;;;;;;5085578;28;20296;-80
2022/09/30 03:10:20;;;;;;;9.77;7.10;;;;;;;;;;5086199;28;20261;-80
2022/09/30 03:12:55;;;;;;;16.40;7.13;;;;;;;;;;5080243;28;20225;-80
2022/09/30 03:15:28;;;;;;;11.47;7.27;;;;;;;;;;5081377;28;20322;-80
2022/09/30 03:18:08;;;;;;;7.97;6.30;;;;;;;;;;5081446;28;20317;-80
2022/09/30 03:20:38;;;;;;;7.33;6.50;;;;;;;;;;5083101;28;20233;-80
2022/09/30 03:23:23;;;;;;;7.17;6.23;;;;;;;;;;5081884;28;20285;-80
2022/09/30 03:25:55;;;;;;;7.53;6.53;;;;;;;;;;5082081;28;20233;-80
2022/09/30 03:28:26;;;;;;;8.07;6.50;;;;;;;;;;5082057;28;20202;-81
2022/09/30 03:30:57;;;;;;;7.93;6.70;;;;;;;;;;5085298;28;20232;-80
2022/09/30 03:33:26;;;;;;;8.50;6.87;;;;;;;;;;5092557;28;20281;-80
2022/09/30 03:35:58;;;;;;;8.30;6.47;;;;;;;;;;5086203;28;20201;-81
2022/09/30 03:38:28;;;;;;;7.60;6.57;;;;;;;;;;5083601;28;20253;-81
2022/09/30 03:41:00;;;;;;;7.27;6.57;;;;;;;;;;5091073;28;20283;-80
2022/09/30 03:43:30;;;;;;;7.93;6.37;;;;;;;;;;5093582;28;20250;-80
2022/09/30 03:46:01;;;;;;;7.50;6.63;;;;;;;;;;5091419;28;20226;-80
2022/09/30 03:48:30;;;;;;;7.93;6.83;;;;;;;;;;5078225;28;20278;-80
2022/09/30 03:50:59;;;;;;;7.13;6.43;;;;;;;;;;5079090;28;20201;-81
2022/09/30 03:53:27;;;;;;;7.30;6.60;;;;;;;;;;5073330;28;20236;-81
2022/09/30 03:55:54;;;;;;;7.83;6.33;;;;;;;;;;5075684;28;20771;-80
2022/09/30 03:58:23;;;;;;;6.83;6.10;;;;;;;;;;5073590;28;20303;-81
2022/09/30 04:00:52;;;;;;;6.93;6.23;;;;;;;;;;5076646;28;20239;-81
2022/09/30 04:03:20;;;;;;;7.13;6.43;;;;;;;;;;5091820;28;20691;-80
2022/09/30 04:05:47;;;;;;;6.70;6.10;;;;;;;;;;5093070;28;20200;-80
2022/09/30 04:08:14;;;;;;;7.30;6.60;;;;;;;;;;5092173;28;20232;-80
2022/09/30 04:10:42;;;;;;;7.80;7.00;;;;;;;;;;5092991;28;20315;-80
2022/09/30 04:13:10;;;;;;;7.53;6.80;;;;;;;;;;5088440;28;20289;-80
2022/09/30 04:15:39;;;;;;;8.33;7.47;;;;;;;;;;5082284;28;20292;-80
2022/09/30 04:18:06;;;;;;;9.47;7.27;;;;;;;;;;5082640;28;20214;-80
2022/09/30 04:20:34;;;;;;;8.10;7.10;;;;;;;;;;5073095;28;20286;-80
2022/09/30 04:23:01;;;;;;;7.37;6.67;;;;;;;;;;5086909;28;20221;-80
2022/09/30 04:25:29;;;;;;;6.80;6.10;;;;;;;;;;5071431;28;20208;-81
2022/09/30 04:27:56;;;;;;;6.80;6.10;;;;;;;;;;5072526;28;20239;-81
2022/09/30 04:30:23;;;;;;;7.10;6.37;;;;;;;;;;5072635;28;20248;-80
2022/09/30 04:32:52;;;;;;;6.47;5.87;;;;;;;;;;5076233;28;20274;-81
2022/09/30 04:35:19;;;;;;;7.13;6.40;;;;;;;;;;5071837;28;20292;-81
2022/09/30 04:37:47;;;;;;;6.90;6.20;;;;;;;;;;5071671;28;20245;-81
2022/09/30 04:40:17;;;;;;;7.23;6.27;;;;;;;;;;5073284;28;20293;-81
2022/09/30 04:42:44;;;;;;;8.77;6.70;;;;;;;;;;5072275;28;20201;-81
2022/09/30 04:45:12;;;;;;;7.67;6.93;;;;;;;;;;5083455;28;20280;-80
2022/09/30 04:47:39;;;;;;;8.10;6.90;;;;;;;;;;5092053;28;20283;-81
2022/09/30 04:50:08;;;;;;;7.03;6.37;;;;;;;;;;5090414;28;20226;-81
2022/09/30 04:52:37;;;;;;;6.77;6.07;;;;;;;;;;5079179;28;20258;-80
2022/09/30 04:55:04;;;;;;;6.27;5.67;;;;;;;;;;5079427;28;20201;-80
2022/09/30 04:57:31;;;;;;;6.67;6.07;;;;;;;;;;5081101;28;20657;-80
2022/09/30 04:59:58;;;;;;;6.43;5.73;;;;;;;;;;5074664;28;20220;-81
2022/09/30 05:02:26;;;;;;;6.27;5.67;;;;;;;;;;5083640;28;20252;-80
2022/09/30 05:04:54;;;;;;;6.73;5.87;;;;;;;;;;5075696;28;20235;-82
2022/09/30 05:07:22;;;;;;;6.40;5.80;;;;;;;;;;5072140;28;20242;-84
2022/09/30 05:09:51;;;;;;;6.57;5.97;;;;;;;;;;5078122;28;20230;-82
2022/09/30 05:12:18;;;;;;;6.30;5.70;;;;;;;;;;5085214;28;20236;-82
2022/09/30 05:14:45;;;;;;;6.40;5.80;;;;;;;;;;5092221;28;20221;-83
2022/09/30 05:17:13;;;;;;;6.70;6.10;;;;;;;;;;5079967;28;20311;-81
2022/09/30 05:19:40;;;;;;;6.63;6.00;;;;;;;;;;5077787;28;20221;-80
2022/09/30 05:22:07;;;;;;;6.97;6.20;;;;;;;;;;5083648;28;20259;-84
2022/09/30 05:24:36;;;;;;;6.57;5.93;;;;;;;;;;5080020;28;20682;-84
2022/09/30 05:27:03;;;;;;;6.90;6.20;;;;;;;;;;5080253;28;20892;-84
2022/09/30 05:29:30;;;;;;;7.87;6.40;;;;;;;;;;5085577;28;20209;-85
2022/09/30 05:31:57;;;;;;;7.00;6.30;;;;;;;;;;5085044;28;20196;-84
2022/09/30 05:34:25;;;;;;;7.10;5.93;;;;;;;;;;5079246;28;20271;-84
2022/09/30 05:36:52;;;;;;;7.57;5.93;;;;;;;;;;5088436;28;20298;-83
2022/09/30 05:39:19;;;;;;;9.97;6.97;;;;;;;;;;5084487;28;20664;-83
2022/09/30 05:41:48;;;;;;;7.90;6.80;;;;;;;;;;5080903;28;20709;-84
2022/09/30 05:44:15;;;;;;;7.70;6.90;;;;;;;;;;5091099;28;20675;-83
2022/09/30 05:46:43;;;;;;;8.80;7.40;;;;;;;;;;5077415;28;20222;-83
2022/09/30 05:49:10;;;;;;;7.97;7.17;;;;;;;;;;5073432;28;20234;-83
2022/09/30 05:51:38;;;;;;;8.40;6.77;;;;;;;;;;5079143;28;20282;-83
2022/09/30 05:54:05;;;;;;;8.17;7.37;;;;;;;;;;5075471;28;20302;-84
2022/09/30 05:56:33;;;;;;;8.30;7.20;;;;;;;;;;5075504;28;20287;-84
2022/09/30 05:59:02;;;;;;;8.30;7.40;;;;;;;;;;5074803;28;20235;-84
2022/09/30 06:01:29;;;;;;;8.50;7.63;;;;;;;;;;5075366;28;20195;-84
2022/09/30 06:03:56;;;;;;;8.50;7.53;;;;;;;;;;5075105;28;20286;-84
2022/09/30 06:06:24;;;;;;;8.80;7.90;;;;;;;;;;5085043;28;20286;-84
2022/09/30 06:08:51;;;;;;;9.37;7.70;;;;;;;;;;5095804;28;20255;-84
2022/09/30 06:11:20;;;;;;;8.17;7.37;;;;;;;;;;5095118;28;20270;-84
2022/09/30 06:13:48;;;;;;;8.70;7.80;;;;;;;;;;5095686;28;20200;-84
2022/09/30 06:16:18;;;;;;;8.60;7.80;;;;;;;;;;5095952;28;20226;-84
2022/09/30 06:18:45;;;;;;;8.40;7.53;;;;;;;;;;5095822;28;20219;-84
2022/09/30 06:21:14;;;;;;;8.70;7.77;;;;;;;;;;5094930;28;20671;-83
2022/09/30 06:23:41;;;;;;;9.07;8.00;;;;;;;;;;5095082;28;20196;-84
2022/09/30 06:26:12;;;;;;;9.30;8.17;;;;;;;;;;5075025;28;20211;-84
2022/09/30 06:28:39;;;;;;;9.43;8.43;;;;;;;;;;5075740;28;20198;-84
2022/09/30 06:31:07;;;;;;;9.23;8.23;;;;;;;;;;5075394;28;20282;-84
2022/09/30 06:33:35;;;;;;;10.00;8.50;;;;;;;;;;5075079;28;20239;-84
2022/09/30 06:36:03;;;;;;;9.60;8.10;;;;;;;;;;5075019;28;20231;-84
2022/09/30 06:38:31;;;;;;;10.90;8.90;;;;;;;;;;5074695;28;20315;-84
2022/09/30 06:40:59;;;;;;;8.80;7.87;;;;;;;;;;5074670;28;20225;-84
2022/09/30 06:43:27;;;;;;;12.53;8.00;;;;;;;;;;5074813;28;20248;-84
2022/09/30 06:45:54;;;;;;;8.07;7.23;;;;;;;;;;5074755;28;20210;-84
2022/09/30 06:48:22;;;;;;;9.50;7.37;;;;;;;;;;5074618;28;20198;-84
2022/09/30 06:50:54;;;;;;;9.53;7.07;;;;;;;;;;5075163;28;20210;-84
2022/09/30 06:53:22;;;;;;;12.70;7.57;;;;;;;;;;5078034;28;20229;-79
2022/09/30 06:55:49;;;;;;;15.23;6.73;;;;;;;;;;5074908;28;20681;-79
2022/09/30 06:58:16;;;;;;;14.50;6.70;;;;;;;;;;5074113;28;20310;-79
2022/09/30 07:00:43;;;;;;;10.00;6.80;;;;;;;;;;5074762;28;20199;-79
2022/09/30 07:03:22;;;;;;;7.23;5.97;;;;;;;;;;5074556;28;20230;-84
2022/09/30 07:05:57;;;;;;;7.30;5.70;;;;;;;;;;5074743;28;20234;-84
2022/09/30 07:08:25;;;;;;;8.47;5.43;;;;;;;;;;5088721;28;20221;-85
2022/09/30 07:10:52;;;;;;;7.57;4.90;;;;;;;;;;5095015;28;20236;-85
2022/09/30 07:13:19;;;;;;;16.67;5.27;;;;;;;;;;5094388;28;20198;-85
2022/09/30 07:15:47;;;;;;;11.20;4.77;;;;;;;;;;5083101;28;20228;-85
2022/09/30 07:18:14;;;;;;;12.57;4.40;;;;;;;;;;5085181;28;20301;-85
2022/09/30 07:20:42;;;;;;;3.80;3.50;;;;;;;;;;5083778;28;20203;-85
2022/09/30 07:23:10;;;;;;;4.27;3.77;;;;;;;;;;5074140;28;20238;-85
2022/09/30 07:25:37;;;;;;;3.97;3.67;;;;;;;;;;5074164;28;20588;-85
2022/09/30 07:28:05;;;;;;;3.20;2.90;;;;;;;;;;5074320;28;20195;-85
2022/09/30 07:30:32;;;;;;;3.77;2.83;;;;;;;;;;5088666;28;20646;-85
2022/09/30 07:32:59;;;;;;;4.80;3.00;;;;;;;;;;5094645;28;20198;-86
2022/09/30 07:35:26;;;;;;;3.58;3.28;;;;;;;;;;5094427;28;20195;-86
2022/09/30 07:37:54;;;;;;;3.67;3.30;;;;;;;;;;5093922;28;20265;-86
2022/09/30 07:40:22;;;;;;;3.70;3.40;;;;;;;;;;5094799;28;20199;-86
2022/09/30 07:42:49;;;;;;;3.28;2.97;;;;;;;;;;5094021;28;20674;-86
2022/09/30 07:45:18;;;;;;;3.67;3.35;;;;;;;;;;5094148;28;20259;-86
2022/09/30 07:47:45;;;;;;;4.28;3.22;;;;;;;;;;5093831;28;20206;-86
2022/09/30 07:50:14;;;;;;;3.20;3.00;;;;;;;;;;5089296;28;20685;-87
2022/09/30 07:52:41;;;;;;;3.90;3.10;;;;;;;;;;5072607;28;20250;-87
2022/09/30 07:55:08;;;;;;;5.65;3.50;;;;;;;;;;5072196;28;20198;-87
2022/09/30 07:57:37;;;;;;;8.60;4.45;;;;;;;;;;5080892;28;20246;-87
2022/09/30 08:00:06;;;;;;;6.38;4.38;;;;;;;;;;5094190;28;20226;-87
2022/09/30 08:02:33;;;;;;;5.03;3.90;;;;;;;;;;5094756;28;20642;-87
2022/09/30 08:05:00;;;;;;;4.57;4.15;;;;;;;;;;5093685;28;20205;-87
2022/09/30 08:07:27;;;;;;;5.82;4.32;;;;;;;;;;5086349;28;20654;-87
2022/09/30 08:09:54;;;;;;;4.30;3.90;;;;;;;;;;5086745;28;20241;-88
2022/09/30 08:12:22;;;;;;;4.80;4.10;;;;;;;;;;5094264;28;20285;-87
2022/09/30 08:14:50;;;;;;;5.43;4.57;;;;;;;;;;5087819;28;20612;-87
2022/09/30 08:17:17;;;;;;;6.63;4.15;;;;;;;;;;5074065;28;20633;-87
2022/09/30 08:19:45;;;;;;;6.35;4.60;;;;;;;;;;5061123;28;20287;-88
2022/09/30 08:22:12;;;;;;;8.15;4.47;;;;;;;;;;5053125;28;20231;-87
2022/09/30 08:24:39;;;;;;;6.20;3.90;;;;;;;;;;5053762;28;20196;-88
2022/09/30 08:27:07;;;;;;;4.63;4.10;;;;;;;;;;5052524;28;20315;-87
2022/09/30 08:29:34;;;;;;;4.30;3.78;;;;;;;;;;5060272;28;20195;-88
2022/09/30 08:32:03;;;;;;;4.05;3.47;;;;;;;;;;5084183;28;20681;-88
2022/09/30 08:34:34;;;;;;;5.80;4.13;;;;;;;;;;5072458;28;20195;-88
2022/09/30 08:37:01;;;;;;;4.32;3.90;;;;;;;;;;5073102;28;20203;-87
2022/09/30 08:39:28;;;;;;;6.30;3.97;;;;;;;;;;5072663;28;20255;-88
2022/09/30 08:42:04;;;;;;;5.53;4.32;;;;;;;;;;5072616;28;20229;-88
2022/09/30 08:44:36;;;;;;;5.40;2.78;;;;;;;;;;5072999;28;20234;-88
2022/09/30 08:47:08;;;;;;;6.80;3.17;;;;;;;;;;5072842;28;20245;-88
2022/09/30 08:49:45;;;;;;;5.75;3.55;;;;;;;;;;5073003;28;20284;-88
2022/09/30 08:52:15;;;;;;;2.85;2.42;;;;;;;;;;5053502;28;20267;-88
2022/09/30 08:54:46;;;;;;;3.85;2.50;;;;;;;;;;5053718;28;20226;-88
2022/09/30 08:57:13;;;;;;;1.83;1.73;;;;;;;;;;5052741;28;20191;-88
2022/09/30 08:59:43;;;;;;;3.45;2.10;;;;;;;;;;5058111;28;20222;-88
2022/09/30 09:02:16;;;;;;;2.38;1.48;;;;;;;;;;5072253;28;20195;-88
2022/09/30 09:04:43;;;;;;;1.60;1.50;;;;;;;;;;5082791;28;20245;-88
2022/09/30 09:07:15;;;;;;;1.88;1.70;;;;;;;;;;5072218;28;20694;-88
2022/09/30 09:09:52;;;;;;;2.72;2.10;;;;;;;;;;5072899;28;20197;-88
2022/09/30 09:12:23;;;;;;;2.22;2.03;;;;;;;;;;5072000;28;20670;-88
2022/09/30 09:14:57;;;;;;;2.15;1.55;;;;;;;;;;5072857;28;20203;-88
2022/09/30 09:17:32;;;;;;;2.03;1.23;;;;;;;;;;5072367;28;20227;-88
2022/09/30 09:20:03;;;;;;;2.72;1.80;;;;;;;;;;5072590;28;20281;-88
2022/09/30 09:22:32;;;;;;;3.03;2.50;;;;;;;;;;5072306;28;20207;-88
2022/09/30 09:25:01;;;;;;;6.75;3.47;;;;;;;;;;5072858;28;20289;-89
2022/09/30 09:27:32;;;;;;;3.83;3.40;;;;;;;;;;5072441;28;20195;-88
2022/09/30 09:30:05;;;;;;;7.07;4.63;;;;;;;;;;5072793;28;20226;-88
2022/09/30 09:32:34;;;;;;;7.47;4.75;;;;;;;;;;5072157;28;20818;-88
2022/09/30 09:35:02;;;;;;;5.53;4.97;;;;;;;;;;5072394;28;20294;-88
2022/09/30 09:40:18;;;;;;;4.53;3.50;;;;;;;;;;5072047;28;20195;-88
2022/09/30 09:42:53;;;;;;;6.78;4.55;;;;;;;;;;5072241;28;20233;-87
2022/09/30 09:45:24;;;;;;;5.40;3.70;;;;;;;;;;5072288;28;20261;-88
2022/09/30 09:47:55;;;;;;;6.32;3.85;;;;;;;;;;5072113;28;20214;-88
2022/09/30 09:50:24;;;;;;;4.20;3.05;;;;;;;;;;5072094;28;20206;-88
2022/09/30 09:52:58;;;;;;;4.57;2.70;;;;;;;;;;5072392;28;20223;-88
2022/09/30 09:55:26;;;;;;;2.60;2.40;;;;;;;;;;5072388;28;20234;-88
2022/09/30 09:58:07;;;;;;;2.55;2.30;;;;;;;;;;5084653;28;20274;-88
2022/09/30 10:03:25;;;;;;;3.65;2.30;;;;;;;;;;5071202;28;20201;-88
2022/09/30 10:06:03;;;;;;;2.63;2.13;;;;;;;;;;5072518;28;20199;-87
2022/09/30 10:08:32;;;;;;;2.97;1.83;;;;;;;;;;5071786;28;20218;-87
2022/09/30 10:11:00;;;;;;;1.98;1.65;;;;;;;;;;5082495;28;20313;-88
2022/09/30 10:13:30;;;;;;;3.70;1.90;;;;;;;;;;5091969;28;20229;-88
2022/09/30 10:15:58;;;;;;;4.22;2.50;;;;;;;;;;5082572;28;20238;-88
2022/09/30 10:18:28;;;;;;;2.55;2.35;;;;;;;;;;5081618;28;20304;-87
2022/09/30 10:20:57;;;;;;;2.78;2.05;;;;;;;;;;5095615;28;20648;-87
2022/09/30 10:23:28;;;;;;;2.33;1.73;;;;;;;;;;5095794;28;20696;-87
2022/09/30 10:25:56;;;;;;;3.25;2.38;;;;;;;;;;5092976;28;20187;-88
2022/09/30 10:28:25;;;;;;;2.78;1.90;;;;;;;;;;5075395;28;20253;-88
2022/09/30 10:30:55;;;;;;;2.60;2.05;;;;;;;;;;5074860;28;20291;-87
2022/09/30 10:33:24;;;;;;;2.13;1.95;;;;;;;;;;5076550;28;20784;-88
2022/09/30 10:35:58;;;;;;;2.13;1.80;;;;;;;;;;5074362;28;20207;-87
2022/09/30 10:38:28;;;;;;;3.58;1.75;;;;;;;;;;5078340;28;20237;-87
2022/09/30 10:40:55;;;;;;;3.80;2.00;;;;;;;;;;5095004;28;20194;-88
2022/09/30 10:43:26;;;;;;;3.38;2.05;;;;;;;;;;5095570;28;20239;-87
2022/09/30 10:45:53;;;;;;;3.05;2.00;;;;;;;;;;5079508;28;20196;-87
2022/09/30 10:48:23;;;;;;;2.97;1.98;;;;;;;;;;5074475;28;20202;-87
2022/09/30 10:50:51;;;;;;;2.80;2.10;;;;;;;;;;5074411;28;20242;-88
2022/09/30 10:53:22;;;;;;;3.08;2.17;;;;;;;;;;5075165;28;20203;-87
2022/09/30 10:55:49;;;;;;;3.65;2.28;;;;;;;;;;5075086;28;20646;-87
2022/09/30 10:58:37;;;;;;;2.97;1.92;;;;;;;;;;5077381;28;20219;-88
2022/09/30 11:01:07;;;;;;;2.30;2.00;;;;;;;;;;5073894;28;20230;-88
2022/09/30 11:03:38;;;;;;;4.20;2.08;;;;;;;;;;5076425;28;20230;-88
2022/09/30 11:06:06;;;;;;;2.65;1.80;;;;;;;;;;5090014;28;20230;-88
2022/09/30 11:08:38;;;;;;;2.35;1.80;;;;;;;;;;5096827;28;20305;-88
2022/09/30 11:11:09;;;;;;;2.00;1.63;;;;;;;;;;5083012;28;20322;-87
2022/09/30 11:13:41;;;;;;;2.92;1.48;;;;;;;;;;5076260;28;20257;-87
2022/09/30 11:16:13;;;;;;;2.90;1.35;;;;;;;;;;5074121;28;20280;-87
2022/09/30 11:18:44;;;;;;;1.60;1.30;;;;;;;;;;5075709;28;20805;-87
2022/09/30 11:21:13;;;;;;;1.10;1.02;;;;;;;;;;5074222;28;20281;-87
2022/09/30 11:23:45;;;;;;;1.60;1.00;;;;;;;;;;5074029;28;20671;-87
2022/09/30 11:26:16;;;;;;;1.30;0.90;;;;;;;;;;5083655;28;20233;-87
2022/09/30 11:28:55;;;;;;;1.85;1.10;;;;;;;;;;5086118;28;20191;-87
2022/09/30 11:31:25;;;;;;;1.75;1.10;;;;;;;;;;5094057;28;20620;-88
2022/09/30 11:34:01;;;;;;;1.33;0.95;;;;;;;;;;5079732;28;20682;-86
2022/09/30 11:36:33;;;;;;;2.58;0.88;;;;;;;;;;5074017;28;20384;-87
2022/09/30 11:39:24;;;;;;;1.13;1.00;;;;;;;;;;5073797;28;20250;-86
2022/09/30 11:41:57;;;;;;;1.10;1.00;;;;;;;;;;5071440;28;20260;-85
2022/09/30 11:44:29;;;;;;;2.17;1.10;;;;;;;;;;5071055;28;20297;-86
2022/09/30 11:47:03;;;;;;;2.20;1.08;;;;;;;;;;5085192;28;20369;-85
2022/09/30 11:49:38;;;;;;;5.10;2.28;;;;;;;;;;5073382;28;20201;-86
2022/09/30 11:52:09;;;;;;;1.45;1.00;;;;;;;;;;5079408;28;20229;-86
2022/09/30 11:54:48;;;;;;;3.55;1.27;;;;;;;;;;5084006;28;20279;-86
2022/09/30 11:57:20;;;;;;;1.65;1.40;;;;;;;;;;5085240;28;20277;-86
2022/09/30 11:59:49;;;;;;;1.38;1.17;;;;;;;;;;5078068;28;20769;-86
2022/09/30 12:02:27;;;;;;;0.80;0.73;;;;;;;;;;5077337;28;20682;-86
2022/09/30 12:04:56;;;;;;;1.98;0.93;;;;;;;;;;5072462;28;20753;-85
2022/09/30 12:07:30;;;;;;;3.28;1.05;;;;;;;;;;5073749;28;20247;-85
2022/09/30 12:09:59;;;;;;;1.35;0.75;;;;;;;;;;5068987;28;20252;-85
2022/09/30 12:12:31;;;;;;;1.02;0.80;;;;;;;;;;5081880;28;20227;-86
2022/09/30 12:15:00;;;;;;;1.05;0.85;;;;;;;;;;5080833;28;20211;-85
2022/09/30 12:17:30;;;;;;;3.08;1.00;;;;;;;;;;5073574;28;20356;-85
2022/09/30 12:19:59;;;;;;;1.92;0.60;;;;;;;;;;5072869;28;20667;-85
2022/09/30 12:22:28;;;;;;;1.00;0.70;;;;;;;;;;5076746;28;20230;-85
2022/09/30 12:24:55;;;;;;;0.95;0.68;;;;;;;;;;5071560;28;20199;-85
2022/09/30 12:27:26;;;;;;;0.90;0.80;;;;;;;;;;5062075;28;20198;-86
2022/09/30 12:30:17;;;;;;;1.00;0.75;;;;;;;;;;5075106;28;20252;-86
2022/09/30 12:32:59;;;;;;;1.27;0.88;;;;;;;;;;5071342;28;20268;-85
2022/09/30 12:35:37;;;;;;;2.08;1.17;;;;;;;;;;5066162;28;20226;-85
2022/09/30 12:38:13;;;;;;;1.63;0.95;;;;;;;;;;5073633;28;20304;-86
2022/09/30 12:40:47;;;;;;;1.63;0.90;;;;;;;;;;5073998;28;20305;-85
2022/09/30 12:43:30;;;;;;;1.15;1.00;;;;;;;;;;5076277;28;20190;-85
2022/09/30 12:46:05;;;;;;;1.52;0.80;;;;;;;;;;5064022;28;20231;-85
2022/09/30 12:48:34;;;;;;;1.30;1.10;;;;;;;;;;5052532;28;20294;-85
2022/09/30 12:51:03;;;;;;;2.70;0.95;;;;;;;;;;5071075;28;20290;-86
2022/09/30 12:53:31;;;;;;;1.20;0.90;;;;;;;;;;5065147;28;20199;-86
2022/09/30 12:56:03;;;;;;;1.00;0.70;;;;;;;;;;5060642;28;20233;-85
2022/09/30 12:58:33;;;;;;;3.05;0.80;;;;;;;;;;5075421;28;20257;-85
2022/09/30 13:01:02;;;;;;;1.38;0.75;;;;;;;;;;5065290;28;20287;-85
2022/09/30 13:03:44;;;;;;;2.35;0.80;;;;;;;;;;5053854;28;20231;-86
2022/09/30 13:06:11;;;;;;;0.95;0.70;;;;;;;;;;5082263;28;20252;-86
2022/09/30 13:08:47;;;;;;;0.88;0.77;;;;;;;;;;5054140;28;20699;-86
2022/09/30 13:11:33;;;;;;;2.58;0.80;;;;;;;;;;5071119;28;20317;-85
2022/09/30 13:14:05;;;;;;;5.78;0.80;;;;;;;;;;5085674;28;20220;-86
2022/09/30 13:16:53;;;;;;;1.70;0.80;;;;;;;;;;5090319;28;20631;-86
2022/09/30 13:19:31;;;;;;;0.98;0.63;;;;;;;;;;5084315;28;20277;-86
2022/09/30 13:22:13;;;;;;;1.00;0.90;;;;;;;;;;5067322;28;20210;-85
2022/09/30 13:24:56;;;;;;;1.58;1.00;;;;;;;;;;5071211;28;20623;-85
2022/09/30 13:27:33;;;;;;;1.45;0.82;;;;;;;;;;5071880;28;20550;-86
2022/09/30 13:30:00;;;;;;;0.82;0.60;;;;;;;;;;5071378;28;20248;-87
2022/09/30 13:32:32;;;;;;;0.95;0.70;;;;;;;;;;5071997;28;20282;-85
2022/09/30 13:35:01;;;;;;;1.40;0.80;;;;;;;;;;5052106;28;20246;-86
2022/09/30 13:37:34;;;;;;;1.50;0.80;;;;;;;;;;5076222;28;20285;-86
2022/09/30 13:40:03;;;;;;;1.40;0.80;;;;;;;;;;5091729;28;20739;-85
2022/09/30 13:42:33;;;;;;;1.77;0.70;;;;;;;;;;5074225;28;20205;-85
2022/09/30 13:45:02;;;;;;;1.70;0.88;;;;;;;;;;5070588;28;20286;-85
2022/09/30 13:47:33;;;;;;;1.25;0.80;;;;;;;;;;5071301;28;20566;-85
2022/09/30 13:50:05;;;;;;;3.88;1.02;;;;;;;;;;5077126;28;20195;-85
2022/09/30 13:52:34;;;;;;;0.98;0.80;;;;;;;;;;5056087;28;20292;-86
2022/09/30 13:55:05;;;;;;;1.77;1.00;;;;;;;;;;5055837;28;20290;-85
2022/09/30 13:57:35;;;;;;;1.25;0.80;;;;;;;;;;5055572;28;20290;-85
2022/09/30 14:00:08;;;;;;;1.75;0.98;;;;;;;;;;5070631;28;20292;-85
2022/09/30 14:02:48;;;;;;;2.15;1.10;;;;;;;;;;5055766;28;20610;-85
2022/09/30 14:05:25;;;;;;;1.30;0.93;;;;;;;;;;5072863;28;20281;-85
2022/09/30 14:08:01;;;;;;;1.67;1.10;;;;;;;;;;5075575;28;20242;-85
2022/09/30 14:10:35;;;;;;;0.73;0.63;;;;;;;;;;5079791;28;20222;-85
2022/09/30 14:13:10;;;;;;;1.48;1.00;;;;;;;;;;5087835;28;20227;-84
2022/09/30 14:15:47;;;;;;;1.55;1.00;;;;;;;;;;5075457;28;20230;-85
2022/09/30 14:18:34;;;;;;;1.38;0.80;;;;;;;;;;5081850;28;20202;-85
2022/09/30 14:21:09;;;;;;;1.20;1.02;;;;;;;;;;5089315;28;20214;-85
2022/09/30 14:23:36;;;;;;;2.25;1.33;;;;;;;;;;5095449;28;20288;-85
2022/09/30 14:26:11;;;;;;;1.33;0.80;;;;;;;;;;5091492;28;20285;-84
2022/09/30 14:28:42;;;;;;;1.15;0.95;;;;;;;;;;5075261;28;20226;-85
2022/09/30 14:31:13;;;;;;;3.72;1.33;;;;;;;;;;5075116;28;20230;-84
2022/09/30 14:33:41;;;;;;;2.53;1.40;;;;;;;;;;5056293;28;20226;-85
2022/09/30 14:36:13;;;;;;;2.10;1.30;;;;;;;;;;5061770;28;20354;-85
2022/09/30 14:38:43;;;;;;;3.60;1.20;;;;;;;;;;5073212;28;20202;-85
2022/09/30 14:41:15;;;;;;;2.55;1.00;;;;;;;;;;5069952;28;20223;-85
2022/09/30 14:43:44;;;;;;;2.20;1.05;;;;;;;;;;5091727;28;20609;-84
2022/09/30 14:46:15;;;;;;;2.10;1.30;;;;;;;;;;5082933;28;20199;-85
2022/09/30 14:48:44;;;;;;;2.28;1.20;;;;;;;;;;5069349;28;20210;-84
2022/09/30 14:51:14;;;;;;;3.08;1.48;;;;;;;;;;5058335;28;20291;-85
2022/09/30 14:53:42;;;;;;;2.97;1.00;;;;;;;;;;5061612;28;20675;-84
2022/09/30 14:56:20;;;;;;;1.77;1.38;;;;;;;;;;5083314;28;20650;-85
2022/09/30 14:58:51;;;;;;;1.88;1.17;;;;;;;;;;5083013;28;20199;-84